Charlotte Roush — WDE5112 — position and weather

sailwx.info

Track history (hours):
 
Tides and Currents Weather Stations Pressure Air Temp Water Temp Dewpoint Dewpoint Depression Visibility Wind Speed Wind Dir Waves Ship Positions

Charlotte Roush

Owner: AEP River Operations LLC, Chesterfield, MO. More information available from US FCC via Universal Licensing System and Coast Guard Vessel Documentation Center.

Last reported at 2016-Jun-25 19:26 UTC. Time now 2016-Jun-25 19:41 UTC.
Position N 29°56' W 090°11'.

Length 35 m; draft 3 m.

Type: Towing. MMSI: 367362230.

Date/timePositionNaut miles runAvg speedWind from/ knotsBaromVisibWave heightAir tempDewpointWater temp
2016-Jun-25 19:26N 29°56' W 090°11'1 0.3
2016-Jun-25 17:33N 29°57' W 090°10'2 1.6
2016-Jun-25 16:33N 29°56' W 090°08'3 2.7
2016-Jun-25 15:34N 29°56' W 090°12'0 0.0
2016-Jun-25 14:33N 29°56' W 090°12'0 0.0
2016-Jun-25 13:34N 29°56' W 090°12'0 0.3
2016-Jun-25 12:33N 29°56' W 090°11'2 2.5
2016-Jun-25 11:34N 29°56' W 090°08'4 4.2
2016-Jun-25 10:33N 29°57' W 090°04'5 5.0
2016-Jun-25 09:33N 29°55' W 089°58'4 4.0
2016-Jun-25 08:32N 29°52' W 089°55'4 4.2
2016-Jun-25 07:33N 29°50' W 089°60'4 0.4
2016-Jun-24 20:32N 29°46' W 090°01'7 7.1
2016-Jun-24 19:33N 29°52' W 089°59'4 4.0
2016-Jun-24 18:33N 29°55' W 089°55'6 6.1
2016-Jun-24 17:33N 29°57' W 090°01'2 2.0
2016-Jun-24 16:33N 29°57' W 090°03'4 4.5
2016-Jun-24 15:33N 29°55' W 090°08'3 2.9
2016-Jun-24 14:32N 29°56' W 090°12'2 0.0
2016-Jun-22 22:03N 29°57' W 090°13'2 3.2
2016-Jun-22 21:34N 29°56' W 090°12'0 0.2
2016-Jun-22 20:33N 29°56' W 090°12'0 0.4
2016-Jun-22 19:33N 29°56' W 090°11'11 3.7
2016-Jun-22 16:33N 29°55' W 089°58'6 2.9
2016-Jun-22 14:33N 29°50' W 089°60'5 0.4
2016-Jun-22 03:32N 29°45' W 090°01'  
2016-Jun-19 02:33N 29°57' W 090°23'1 0.1
2016-Jun-18 19:05N 29°56' W 090°22'  
2016-Jun-16 03:25N 29°56' W 090°19'  
Track history (hours):
 
Tides and Currents Weather Stations Pressure Air Temp Water Temp Dewpoint Dewpoint Depression Visibility Wind Speed Wind Dir Waves Ship Positions

Charlotte Roush

Owner: AEP River Operations LLC, Chesterfield, MO. More information available from US FCC via Universal Licensing System and Coast Guard Vessel Documentation Center.

Last reported at 2016-Jun-25 19:26 UTC. Time now 2016-Jun-25 19:41 UTC.
Position N 29°56' W 090°11'.

Length 35 m; draft 3 m.

Type: Towing. MMSI: 367362230.

Date/timePositionNaut miles runAvg speedWind from/ knotsBaromVisibWave heightAir tempDewpointWater temp
2016-Jun-25 19:26N 29°56' W 090°11'1 0.3
2016-Jun-25 17:33N 29°57' W 090°10'2 1.6
2016-Jun-25 16:33N 29°56' W 090°08'3 2.7
2016-Jun-25 15:34N 29°56' W 090°12'0 0.0
2016-Jun-25 14:33N 29°56' W 090°12'0 0.0
2016-Jun-25 13:34N 29°56' W 090°12'0 0.3
2016-Jun-25 12:33N 29°56' W 090°11'2 2.5
2016-Jun-25 11:34N 29°56' W 090°08'4 4.2
2016-Jun-25 10:33N 29°57' W 090°04'5 5.0
2016-Jun-25 09:33N 29°55' W 089°58'4 4.0
2016-Jun-25 08:32N 29°52' W 089°55'4 4.2
2016-Jun-25 07:33N 29°50' W 089°60'4 0.4
2016-Jun-24 20:32N 29°46' W 090°01'7 7.1
2016-Jun-24 19:33N 29°52' W 089°59'4 4.0
2016-Jun-24 18:33N 29°55' W 089°55'6 6.1
2016-Jun-24 17:33N 29°57' W 090°01'2 2.0
2016-Jun-24 16:33N 29°57' W 090°03'4 4.5
2016-Jun-24 15:33N 29°55' W 090°08'3 2.9
2016-Jun-24 14:32N 29°56' W 090°12'2 0.0
2016-Jun-22 22:03N 29°57' W 090°13'2 3.2
2016-Jun-22 21:34N 29°56' W 090°12'0 0.2
2016-Jun-22 20:33N 29°56' W 090°12'0 0.4
2016-Jun-22 19:33N 29°56' W 090°11'11 3.7
2016-Jun-22 16:33N 29°55' W 089°58'6 2.9
2016-Jun-22 14:33N 29°50' W 089°60'5 0.4
2016-Jun-22 03:32N 29°45' W 090°01'  
2016-Jun-19 02:33N 29°57' W 090°23'1 0.1
2016-Jun-18 19:05N 29°56' W 090°22'  
2016-Jun-16 03:25N 29°56' W 090°19'  

Dump ship's entire track history